Harry B. Settoon — WDE5658 — position and weather

sailwx.info

Track history (hours):
 
Tides and Currents Weather Stations Pressure Air Temp Water Temp Dewpoint Dewpoint Depression Visibility Wind Speed Wind Dir Waves Ship Positions

Harry B. Settoon

Owner: Settoon Towing, LLC, Houma, LA. More information available from US FCC via Universal Licensing System and Coast Guard Vessel Documentation Center.

Last reported at 2017-Mar-26 01:32 UTC. Time now 2017-Mar-26 13:07 UTC.
Position N 29°34' W 090°56'.

; draft 1.8 m.

Type: Tug. MMSI: 367369920.

Date/timePositionNaut miles runAvg speedWind from/ knotsBaromVisibWave heightAir tempDewpointWater temp
2017-Mar-26 01:32N 29°34' W 090°56'6 5.7
2017-Mar-26 00:33N 29°32' W 090°50'5 5.2
2017-Mar-25 23:34N 29°34' W 090°45'4 3.7
2017-Mar-25 22:33N 29°31' W 090°43'6 5.6
2017-Mar-25 21:33N 29°25' W 090°43'2 0.1
2017-Mar-24 07:12N 29°23' W 090°44'4 5.6
2017-Mar-24 06:33N 29°27' W 090°43'6 5.8
2017-Mar-24 05:33N 29°32' W 090°42'3 3.3
2017-Mar-24 04:33N 29°32' W 090°46'30 1.7
2017-Mar-23 11:24N 29°55' W 091°07'  
2017-Mar-21 03:28N 29°47' W 091°48'5 5.4
2017-Mar-21 02:29N 29°51' W 091°52'6 6.0
2017-Mar-21 01:33N 29°50' W 091°59'1 0.7
2017-Mar-21 00:33N 29°50' W 091°59'0 0.0
2017-Mar-20 23:33N 29°50' W 091°59'0 0.0
2017-Mar-20 22:33N 29°50' W 091°59'0 0.0
2017-Mar-20 21:33N 29°50' W 091°59'0 0.0
2017-Mar-20 20:33N 29°50' W 091°59'0 0.0
2017-Mar-20 19:33N 29°50' W 091°59'1 1.4
2017-Mar-20 18:33N 29°50' W 091°58'55 1.8
2017-Mar-19 12:31N 29°34' W 090°57'6 5.8
2017-Mar-19 11:33N 29°32' W 090°51'5 5.2
2017-Mar-19 10:33N 29°33' W 090°45'3 2.7
2017-Mar-19 09:33N 29°35' W 090°43'0 0.0
2017-Mar-19 08:33N 29°35' W 090°43'0 0.0
2017-Mar-19 07:33N 29°35' W 090°43'0 0.1
2017-Mar-19 06:33N 29°35' W 090°43'2 1.8
2017-Mar-19 05:33N 29°37' W 090°42'5 4.7
2017-Mar-19 04:33N 29°35' W 090°38'5 4.9
2017-Mar-19 03:33N 29°34' W 090°32'  
2017-Mar-16 11:10N 29°33' W 090°26'4 6.7
2017-Mar-16 10:32N 29°34' W 090°31'6 6.4
2017-Mar-16 09:33N 29°35' W 090°38'4 4.4
2017-Mar-16 08:33N 29°35' W 090°43'6 5.8
2017-Mar-16 07:33N 29°32' W 090°48'9 3.7
2017-Mar-16 05:12N 29°38' W 090°56'  
Track history (hours):
 
Tides and Currents Weather Stations Pressure Air Temp Water Temp Dewpoint Dewpoint Depression Visibility Wind Speed Wind Dir Waves Ship Positions

Harry B. Settoon

Owner: Settoon Towing, LLC, Houma, LA. More information available from US FCC via Universal Licensing System and Coast Guard Vessel Documentation Center.

Last reported at 2017-Mar-26 01:32 UTC. Time now 2017-Mar-26 13:07 UTC.
Position N 29°34' W 090°56'.

; draft 1.8 m.

Type: Tug. MMSI: 367369920.

Date/timePositionNaut miles runAvg speedWind from/ knotsBaromVisibWave heightAir tempDewpointWater temp
2017-Mar-26 01:32N 29°34' W 090°56'6 5.7
2017-Mar-26 00:33N 29°32' W 090°50'5 5.2
2017-Mar-25 23:34N 29°34' W 090°45'4 3.7
2017-Mar-25 22:33N 29°31' W 090°43'6 5.6
2017-Mar-25 21:33N 29°25' W 090°43'2 0.1
2017-Mar-24 07:12N 29°23' W 090°44'4 5.6
2017-Mar-24 06:33N 29°27' W 090°43'6 5.8
2017-Mar-24 05:33N 29°32' W 090°42'3 3.3
2017-Mar-24 04:33N 29°32' W 090°46'30 1.7
2017-Mar-23 11:24N 29°55' W 091°07'  
2017-Mar-21 03:28N 29°47' W 091°48'5 5.4
2017-Mar-21 02:29N 29°51' W 091°52'6 6.0
2017-Mar-21 01:33N 29°50' W 091°59'1 0.7
2017-Mar-21 00:33N 29°50' W 091°59'0 0.0
2017-Mar-20 23:33N 29°50' W 091°59'0 0.0
2017-Mar-20 22:33N 29°50' W 091°59'0 0.0
2017-Mar-20 21:33N 29°50' W 091°59'0 0.0
2017-Mar-20 20:33N 29°50' W 091°59'0 0.0
2017-Mar-20 19:33N 29°50' W 091°59'1 1.4
2017-Mar-20 18:33N 29°50' W 091°58'55 1.8
2017-Mar-19 12:31N 29°34' W 090°57'6 5.8
2017-Mar-19 11:33N 29°32' W 090°51'5 5.2
2017-Mar-19 10:33N 29°33' W 090°45'3 2.7
2017-Mar-19 09:33N 29°35' W 090°43'0 0.0
2017-Mar-19 08:33N 29°35' W 090°43'0 0.0
2017-Mar-19 07:33N 29°35' W 090°43'0 0.1
2017-Mar-19 06:33N 29°35' W 090°43'2 1.8
2017-Mar-19 05:33N 29°37' W 090°42'5 4.7
2017-Mar-19 04:33N 29°35' W 090°38'5 4.9
2017-Mar-19 03:33N 29°34' W 090°32'  
2017-Mar-16 11:10N 29°33' W 090°26'4 6.7
2017-Mar-16 10:32N 29°34' W 090°31'6 6.4
2017-Mar-16 09:33N 29°35' W 090°38'4 4.4
2017-Mar-16 08:33N 29°35' W 090°43'6 5.8
2017-Mar-16 07:33N 29°32' W 090°48'9 3.7
2017-Mar-16 05:12N 29°38' W 090°56'  

Dump ship's entire track history